createdAt,value
2022-08-16T00:02:52.699Z,66.97
2022-08-16T00:07:57.110Z,61.28
2022-08-16T00:13:02.022Z,58.32
2022-08-16T00:18:05.713Z,62.62
2022-08-16T00:23:14.257Z,66.77
2022-08-16T00:28:18.891Z,61.90
2022-08-16T00:33:21.901Z,59.05
2022-08-16T00:38:40.960Z,63.94
2022-08-16T00:43:47.209Z,64.61
2022-08-16T00:48:51.605Z,59.16
2022-08-16T00:53:55.940Z,61.47
2022-08-16T00:59:01.378Z,63.02
2022-08-16T01:04:29.513Z,58.73
2022-08-16T01:09:37.357Z,64.30
2022-08-16T01:14:50.300Z,63.11
2022-08-16T01:20:00.778Z,58.61
2022-08-16T01:25:36.238Z,63.98
2022-08-16T01:30:50.348Z,62.94
2022-08-16T01:36:09.410Z,58.44
2022-08-16T01:41:21.116Z,63.77
2022-08-16T01:46:29.990Z,63.94
2022-08-16T01:51:45.106Z,58.97
2022-08-16T01:56:48.211Z,64.94
2022-08-16T02:02:00.217Z,61.65
2022-08-16T02:07:08.769Z,58.82
2022-08-16T02:12:50.043Z,65.37
2022-08-16T02:17:39.358Z,60.27
2022-08-16T02:22:43.591Z,59.56
2022-08-16T02:27:51.139Z,65.78
2022-08-16T02:32:55.509Z,59.45
2022-08-16T02:38:01.767Z,59.83
2022-08-16T02:43:13.150Z,64.64
2022-08-16T02:48:30.014Z,58.70
2022-08-16T02:53:34.910Z,63.36
2022-08-16T02:58:39.116Z,60.91
2022-08-16T03:04:39.828Z,59.50
2022-08-16T03:09:05.658Z,64.68
2022-08-16T03:14:09.093Z,59.00
2022-08-16T03:19:15.649Z,64.00
2022-08-16T03:24:28.148Z,59.99
2022-08-16T03:29:33.984Z,60.89
2022-08-16T03:34:37.160Z,64.52
2022-08-16T03:39:42.998Z,61.71
2022-08-16T03:44:49.242Z,57.34
2022-08-16T03:49:54.063Z,61.24
2022-08-16T03:54:59.489Z,65.54
2022-08-16T04:00:20.703Z,58.46
2022-08-16T04:05:44.257Z,63.41
2022-08-16T04:10:51.821Z,62.55
2022-08-16T04:15:55.790Z,57.98
2022-08-16T04:20:59.103Z,63.98
2022-08-16T04:26:02.723Z,61.29
2022-08-16T04:31:07.246Z,56.17
2022-08-16T04:36:20.065Z,60.48
2022-08-16T04:41:32.638Z,66.16
2022-08-16T04:47:02.226Z,58.36
2022-08-16T04:52:05.369Z,59.58
2022-08-16T04:57:30.004Z,64.88
2022-08-16T05:02:42.044Z,58.49
2022-08-16T05:07:58.346Z,61.09
2022-08-16T05:13:05.362Z,64.46
2022-08-16T05:18:15.828Z,58.92
2022-08-16T05:23:19.731Z,63.47
2022-08-16T05:28:30.968Z,61.07
2022-08-16T05:33:42.160Z,59.02
2022-08-16T05:38:45.267Z,64.27
2022-08-16T05:43:49.471Z,59.65
2022-08-16T05:48:55.182Z,59.22
2022-08-16T05:53:59.590Z,64.23
2022-08-16T05:59:06.394Z,58.62
2022-08-16T06:04:13.008Z,60.09
2022-08-16T06:09:18.109Z,64.14
2022-08-16T06:14:21.336Z,58.93
2022-08-16T06:19:24.550Z,59.27
2022-08-16T06:24:53.345Z,63.57
2022-08-16T06:29:50.838Z,58.50
2022-08-16T06:34:56.872Z,62.56
2022-08-16T06:40:00.988Z,60.98
2022-08-16T06:45:07.059Z,59.82
2022-08-16T06:50:11.505Z,63.18
2022-08-16T06:55:34.534Z,57.02
2022-08-16T07:00:38.676Z,60.64
2022-08-16T07:05:46.392Z,61.89
2022-08-16T07:10:51.371Z,57.07
2022-08-16T07:15:54.587Z,60.78
2022-08-16T07:21:02.023Z,60.27
2022-08-16T07:26:10.311Z,56.04
2022-08-16T07:31:13.712Z,57.76
2022-08-16T07:36:22.199Z,59.53
2022-08-16T07:41:25.465Z,57.37
2022-08-16T07:46:37.907Z,51.80
2022-08-16T07:51:42.946Z,51.77
2022-08-16T07:56:46.068Z,51.03
2022-08-16T08:01:49.157Z,51.84
2022-08-16T08:06:56.261Z,53.22
2022-08-16T08:11:59.764Z,54.46
2022-08-16T08:17:08.605Z,55.16
2022-08-16T08:22:19.159Z,56.12
2022-08-16T08:27:23.508Z,55.43
2022-08-16T08:32:51.076Z,54.42
2022-08-16T08:37:55.799Z,55.56
2022-08-16T08:43:11.408Z,53.13
2022-08-16T08:48:33.431Z,55.28
2022-08-16T08:53:38.193Z,54.61
2022-08-16T08:58:53.916Z,53.73
2022-08-16T09:03:58.261Z,51.97
2022-08-16T09:09:02.145Z,49.95
2022-08-16T09:14:05.560Z,50.57
2022-08-16T09:24:46.682Z,49.08
2022-08-16T09:29:44.885Z,48.28
2022-08-16T09:34:48.922Z,48.72
2022-08-16T09:39:52.508Z,48.02
2022-08-16T09:45:09.168Z,47.32
2022-08-16T09:50:22.669Z,47.27
2022-08-16T09:55:26.446Z,45.32
2022-08-16T10:00:44.226Z,46.46
2022-08-16T10:05:49.149Z,46.85
2022-08-16T10:11:30.969Z,45.37
2022-08-16T10:16:57.486Z,44.30
2022-08-16T10:22:04.996Z,42.64
2022-08-16T10:27:26.060Z,42.06
2022-08-16T10:32:32.103Z,42.24
2022-08-16T10:37:36.516Z,43.24
2022-08-16T10:42:40.946Z,43.38
2022-08-16T10:47:44.619Z,42.98
2022-08-16T10:52:49.890Z,42.72
2022-08-16T10:57:56.808Z,44.00
2022-08-16T11:03:06.508Z,43.51
2022-08-16T11:08:35.724Z,42.58
2022-08-16T11:19:12.463Z,39.17
2022-08-16T11:24:42.572Z,39.21
2022-08-16T11:29:40.138Z,39.55
2022-08-16T11:35:05.968Z,39.18
2022-08-16T11:40:09.311Z,39.80
2022-08-16T11:45:13.147Z,37.70
2022-08-16T11:50:17.790Z,38.14
2022-08-16T11:55:20.978Z,38.89
2022-08-16T12:00:50.441Z,36.77
2022-08-16T12:05:52.024Z,36.92
2022-08-16T12:10:59.352Z,37.22
2022-08-16T12:16:09.082Z,37.23
2022-08-16T12:21:14.343Z,37.71
2022-08-16T12:26:17.620Z,38.23
2022-08-16T12:31:22.310Z,38.64
2022-08-16T12:36:26.460Z,38.29
2022-08-16T12:41:34.750Z,38.11
2022-08-16T12:46:38.044Z,38.73
2022-08-16T12:51:59.278Z,38.28
2022-08-16T12:57:03.665Z,38.28
2022-08-16T13:02:06.848Z,38.65
2022-08-16T13:07:16.491Z,38.19
2022-08-16T13:12:24.899Z,38.57
2022-08-16T13:17:29.695Z,38.62
2022-08-16T13:22:33.806Z,39.15
2022-08-16T13:28:02.669Z,39.27
2022-08-16T13:33:00.579Z,39.71
2022-08-16T13:38:03.611Z,40.92
2022-08-16T13:43:11.302Z,40.93
2022-08-16T13:48:21.859Z,41.52
2022-08-16T13:53:28.737Z,41.46
2022-08-16T13:58:37.190Z,41.93
2022-08-16T14:03:55.853Z,41.94
2022-08-16T14:09:06.438Z,40.84
2022-08-16T14:14:11.210Z,40.96
2022-08-16T14:19:19.043Z,41.44
2022-08-16T14:24:30.070Z,42.86
2022-08-16T14:29:34.999Z,43.77
2022-08-16T14:34:42.388Z,43.97
2022-08-16T14:39:45.490Z,44.48
2022-08-16T14:44:49.737Z,44.90
2022-08-16T14:49:54.009Z,45.11
2022-08-16T14:54:57.529Z,44.78
2022-08-16T15:00:06.010Z,43.82
2022-08-16T15:05:11.635Z,42.99
2022-08-16T15:10:23.851Z,43.01
2022-08-16T15:15:30.956Z,42.52
2022-08-16T15:20:35.695Z,42.58
2022-08-16T15:25:44.342Z,43.14
2022-08-16T15:30:59.831Z,43.11
2022-08-16T15:36:04.963Z,41.94
2022-08-16T15:41:08.458Z,42.51
2022-08-16T15:46:35.646Z,42.49
2022-08-16T15:51:46.986Z,43.10
2022-08-16T15:56:51.737Z,43.48
2022-08-16T16:01:57.307Z,43.54
2022-08-16T16:07:02.588Z,43.37
2022-08-16T16:12:41.480Z,43.64
2022-08-16T16:17:31.509Z,43.72
2022-08-16T16:22:34.470Z,43.91
2022-08-16T16:27:37.625Z,44.29
2022-08-16T16:32:40.634Z,44.66
2022-08-16T16:37:43.957Z,44.96
2022-08-16T16:42:51.268Z,45.18
2022-08-16T16:47:54.404Z,45.36
2022-08-16T16:53:00.141Z,45.74
2022-08-16T16:58:35.264Z,46.22
2022-08-16T17:03:39.834Z,46.66
2022-08-16T17:08:43.219Z,47.56
2022-08-16T17:13:46.768Z,47.94
2022-08-16T17:19:16.745Z,48.70
2022-08-16T17:24:17.911Z,48.94
2022-08-16T17:29:22.416Z,49.07
2022-08-16T17:34:34.585Z,49.47
2022-08-16T17:40:00.352Z,49.92
2022-08-16T17:45:10.274Z,50.93
2022-08-16T17:50:13.462Z,52.84
2022-08-16T17:55:25.346Z,53.14
2022-08-16T18:00:29.164Z,53.30
2022-08-16T18:05:34.154Z,53.05
2022-08-16T18:10:37.255Z,52.86
2022-08-16T18:15:42.333Z,53.67
2022-08-16T18:21:04.057Z,53.44
2022-08-16T18:26:08.181Z,54.97
2022-08-16T18:31:11.198Z,54.66
2022-08-16T18:36:20.473Z,55.08
2022-08-16T18:41:27.064Z,55.56
2022-08-16T18:46:30.149Z,56.99
2022-08-16T18:51:34.033Z,58.42
2022-08-16T18:56:55.775Z,59.16
2022-08-16T19:02:04.909Z,59.46
2022-08-16T19:07:08.394Z,59.47
2022-08-16T19:12:11.767Z,59.17
2022-08-16T19:17:20.805Z,62.73
2022-08-16T19:22:45.238Z,54.53
2022-08-16T19:27:54.432Z,54.83
2022-08-16T19:32:57.640Z,56.13
2022-08-16T19:38:00.944Z,57.09
2022-08-16T19:43:04.051Z,57.65
2022-08-16T19:48:10.131Z,57.97
2022-08-16T19:53:18.914Z,58.92
2022-08-16T19:58:23.309Z,59.06
2022-08-16T20:03:27.298Z,60.00
2022-08-16T20:08:30.787Z,65.47
2022-08-16T20:13:37.141Z,55.88
2022-08-16T20:18:41.073Z,56.25
2022-08-16T20:23:44.091Z,57.61
2022-08-16T20:28:54.130Z,59.13
2022-08-16T20:33:57.972Z,60.65
2022-08-16T20:39:05.179Z,65.41
2022-08-16T20:44:10.642Z,61.93
2022-08-16T20:49:13.663Z,55.30
2022-08-16T20:54:16.763Z,56.93
2022-08-16T20:59:19.868Z,58.62
2022-08-16T21:04:25.775Z,60.59
2022-08-16T21:09:33.698Z,65.46
2022-08-16T21:14:37.181Z,56.44
2022-08-16T21:19:40.492Z,57.13
2022-08-16T21:24:46.424Z,58.91
2022-08-16T21:29:49.688Z,65.64
2022-08-16T21:34:53.197Z,58.49
2022-08-16T21:39:56.154Z,60.41
2022-08-16T21:44:59.213Z,64.95
2022-08-16T21:50:02.219Z,57.72
2022-08-16T21:55:07.351Z,58.88
2022-08-16T22:00:16.225Z,60.86
2022-08-16T22:05:19.344Z,66.42
2022-08-16T22:11:06.549Z,58.12
2022-08-16T22:15:48.003Z,58.35
2022-08-16T22:20:51.495Z,60.45
2022-08-16T22:25:56.269Z,66.82
2022-08-16T22:31:00.628Z,58.17
2022-08-16T22:36:05.409Z,58.03
2022-08-16T22:41:08.432Z,63.54
2022-08-16T22:46:11.537Z,60.35
2022-08-16T22:51:14.548Z,57.00
2022-08-16T22:56:18.389Z,58.69
2022-08-16T23:01:24.505Z,65.51
2022-08-16T23:06:27.508Z,58.42
2022-08-16T23:11:30.469Z,60.58
2022-08-16T23:16:35.040Z,66.73
2022-08-16T23:21:41.635Z,59.21
2022-08-16T23:26:48.704Z,57.18
2022-08-16T23:31:56.522Z,60.78
2022-08-16T23:36:59.729Z,65.74
2022-08-16T23:42:11.427Z,58.18
2022-08-16T23:47:14.342Z,59.76
2022-08-16T23:52:17.363Z,65.24
2022-08-16T23:57:20.357Z,58.64
